Time;durP1;ratioP1;P1;durP2;ratioP2;P2;SDS_P1;SDS_P2;PMS_P1;PMS_P2;Temp;Humidity;BMP_temperature;BMP_pressure;BME280_temperature;BME280_humidity;BME280_pressure;Samples;Min_cycle;Max_cycle;Signal;HPM_P1;HPM_P2
2023/03/22 00:01:58;;;;;;;8.70;7.60;;;;;;;;;;80074;256;3032058;-35
2023/03/22 00:04:40;;;;;;;8.50;7.50;;;;;;;;;;80082;255;3028566;-34
2023/03/22 00:07:16;;;;;;;9.30;7.30;;;;;;;;;;80041;256;3026959;-34
2023/03/22 00:09:56;;;;;;;8.70;7.00;;;;;;;;;;80055;256;3030997;-35
2023/03/22 00:12:35;;;;;;;8.60;7.10;;;;;;;;;;80076;255;3031736;-35
2023/03/22 00:15:14;;;;;;;10.10;7.70;;;;;;;;;;80070;260;3028674;-35
2023/03/22 00:17:51;;;;;;;8.60;7.50;;;;;;;;;;80067;256;3027876;-35
2023/03/22 00:20:30;;;;;;;9.10;7.70;;;;;;;;;;80046;255;3037131;-35
2023/03/22 00:23:07;;;;;;;8.50;7.60;;;;;;;;;;80089;255;3031852;-35
2023/03/22 00:25:44;;;;;;;8.70;7.60;;;;;;;;;;80091;256;3028100;-35
2023/03/22 00:28:30;;;;;;;9.00;7.80;;;;;;;;;;80070;255;3027831;-35
2023/03/22 00:31:10;;;;;;;9.40;7.90;;;;;;;;;;80080;255;3038371;-34
2023/03/22 00:33:48;;;;;;;9.50;7.80;;;;;;;;;;80055;255;3031480;-34
2023/03/22 00:36:28;;;;;;;9.20;8.10;;;;;;;;;;80087;255;3028374;-34
2023/03/22 00:39:09;;;;;;;9.50;8.00;;;;;;;;;;80029;255;3027856;-34
2023/03/22 00:41:46;;;;;;;9.60;8.10;;;;;;;;;;80090;256;3030810;-34
2023/03/22 00:44:22;;;;;;;9.20;8.20;;;;;;;;;;80818;256;3013018;-34
2023/03/22 00:47:02;;;;;;;9.70;8.10;;;;;;;;;;80804;255;3011568;-34
2023/03/22 00:49:41;;;;;;;9.50;8.30;;;;;;;;;;80021;260;3031565;-34
2023/03/22 00:52:21;;;;;;;9.60;8.20;;;;;;;;;;80080;256;3028412;-34
2023/03/22 00:54:59;;;;;;;9.00;7.70;;;;;;;;;;80080;255;3027705;-34
2023/03/22 00:57:36;;;;;;;10.10;8.60;;;;;;;;;;80028;255;3030388;-34
2023/03/22 01:00:16;;;;;;;9.40;8.10;;;;;;;;;;80046;255;3032191;-34
2023/03/22 01:02:58;;;;;;;9.20;8.10;;;;;;;;;;80096;255;3028346;-34
2023/03/22 01:05:36;;;;;;;9.50;8.40;;;;;;;;;;80088;256;3028561;-34
2023/03/22 01:08:15;;;;;;;9.80;8.60;;;;;;;;;;80085;255;3030622;-34
2023/03/22 01:10:53;;;;;;;9.70;8.40;;;;;;;;;;80038;256;3031706;-34
2023/03/22 01:13:32;;;;;;;9.50;8.40;;;;;;;;;;80079;256;3028727;-34
2023/03/22 01:16:09;;;;;;;9.40;8.40;;;;;;;;;;80057;255;3027084;-34
2023/03/22 01:18:46;;;;;;;9.90;8.80;;;;;;;;;;80082;256;3030731;-34
2023/03/22 01:21:23;;;;;;;9.80;8.70;;;;;;;;;;80071;256;3031455;-34
2023/03/22 01:23:59;;;;;;;9.80;8.80;;;;;;;;;;80079;252;3031116;-34
2023/03/22 01:26:40;;;;;;;10.30;8.30;;;;;;;;;;80106;255;3030684;-34
2023/03/22 01:29:16;;;;;;;10.10;8.60;;;;;;;;;;80078;256;3034524;-34
2023/03/22 01:31:52;;;;;;;9.90;8.50;;;;;;;;;;80034;256;3034620;-34
2023/03/22 01:34:33;;;;;;;10.30;9.00;;;;;;;;;;80048;244;3028529;-34
2023/03/22 01:37:12;;;;;;;10.50;8.90;;;;;;;;;;80073;256;3027037;-34
2023/03/22 01:39:50;;;;;;;9.10;8.00;;;;;;;;;;80060;256;3031076;-34
2023/03/22 01:42:30;;;;;;;10.10;9.00;;;;;;;;;;80056;255;3038200;-34
2023/03/22 01:45:38;;;;;;;9.80;8.70;;;;;;;;;;80078;255;3028810;-34
2023/03/22 01:48:32;;;;;;;9.50;8.20;;;;;;;;;;80103;256;3027541;-34
2023/03/22 01:51:12;;;;;;;9.20;8.00;;;;;;;;;;80070;255;3030653;-34
2023/03/22 01:53:50;;;;;;;9.50;8.50;;;;;;;;;;80061;256;3031765;-34
2023/03/22 01:56:33;;;;;;;9.40;8.30;;;;;;;;;;80049;260;3028741;-34
2023/03/22 01:59:13;;;;;;;10.00;8.70;;;;;;;;;;80045;256;3027416;-34
2023/03/22 02:01:49;;;;;;;9.80;8.80;;;;;;;;;;80059;256;3030669;-34
2023/03/22 02:04:32;;;;;;;9.10;8.10;;;;;;;;;;80089;256;3031511;-34
2023/03/22 02:07:14;;;;;;;9.70;8.70;;;;;;;;;;80061;255;3028357;-34
2023/03/22 02:09:51;;;;;;;9.30;8.20;;;;;;;;;;80094;255;3028106;-34
2023/03/22 02:12:40;;;;;;;9.90;8.70;;;;;;;;;;80003;255;3031225;-34
2023/03/22 02:15:25;;;;;;;9.40;8.40;;;;;;;;;;80053;256;3031472;-34
2023/03/22 02:18:16;;;;;;;9.50;8.40;;;;;;;;;;80042;256;3028141;-34
2023/03/22 02:21:49;;;;;;;9.30;7.90;;;;;;;;;;80074;256;3028422;-34
2023/03/22 02:24:48;;;;;;;9.70;8.30;;;;;;;;;;80063;256;3038001;-34
2023/03/22 02:27:42;;;;;;;9.50;8.20;;;;;;;;;;80096;256;3031161;-34
2023/03/22 02:30:55;;;;;;;9.30;8.30;;;;;;;;;;80077;256;3028301;-34
2023/03/22 02:34:14;;;;;;;9.10;8.10;;;;;;;;;;80016;256;3027476;-34
2023/03/22 02:37:23;;;;;;;9.30;8.20;;;;;;;;;;80055;256;3031311;-34
2023/03/22 02:40:09;;;;;;;9.30;8.30;;;;;;;;;;80056;256;3031934;-34
2023/03/22 02:42:57;;;;;;;9.40;8.30;;;;;;;;;;80037;256;3028582;-35
2023/03/22 02:45:42;;;;;;;9.10;8.10;;;;;;;;;;80046;255;3027793;-34
2023/03/22 02:48:25;;;;;;;8.90;8.00;;;;;;;;;;80062;255;3031180;-34
2023/03/22 02:51:12;;;;;;;8.80;7.80;;;;;;;;;;80044;256;3031568;-35
2023/03/22 02:53:53;;;;;;;9.20;8.00;;;;;;;;;;80057;256;3028004;-34
2023/03/22 02:56:34;;;;;;;8.90;7.60;;;;;;;;;;80065;256;3027311;-34
2023/03/22 02:59:14;;;;;;;;;;;;;;;;;;80083;256;3031237;-34
2023/03/22 03:01:55;;;;;;;8.90;7.50;;;;;;;;;;80095;256;3031777;-34
2023/03/22 03:04:37;;;;;;;;;;;;;;;;;;80081;256;3027922;-34
2023/03/22 03:07:19;;;;;;;9.20;7.70;;;;;;;;;;80110;256;3027015;-34
2023/03/22 03:09:58;;;;;;;8.50;7.40;;;;;;;;;;80093;256;3031005;-34
2023/03/22 03:12:38;;;;;;;8.90;7.90;;;;;;;;;;80071;256;3031392;-34
2023/03/22 03:15:22;;;;;;;9.20;7.90;;;;;;;;;;80060;256;3028571;-34
2023/03/22 03:18:14;;;;;;;9.10;7.80;;;;;;;;;;80081;256;3027299;-34
2023/03/22 03:21:02;;;;;;;9.10;7.80;;;;;;;;;;80079;256;3031157;-34
2023/03/22 03:23:48;;;;;;;9.40;8.10;;;;;;;;;;80024;256;3032061;-34
2023/03/22 03:26:34;;;;;;;8.20;7.30;;;;;;;;;;80097;256;3028301;-34
2023/03/22 03:29:19;;;;;;;8.90;8.00;;;;;;;;;;80085;256;3027959;-34
2023/03/22 03:32:01;;;;;;;9.30;7.90;;;;;;;;;;80074;256;3031558;-34
2023/03/22 03:34:48;;;;;;;8.50;7.60;;;;;;;;;;80029;256;3031530;-34
2023/03/22 03:37:29;;;;;;;8.70;7.30;;;;;;;;;;80093;256;3028256;-34
2023/03/22 03:40:11;;;;;;;8.00;7.20;;;;;;;;;;80099;256;3027890;-34
2023/03/22 03:42:52;;;;;;;8.70;7.30;;;;;;;;;;80113;256;3031349;-34
2023/03/22 03:45:31;;;;;;;9.00;7.60;;;;;;;;;;80023;256;3031512;-34
2023/03/22 03:48:16;;;;;;;9.40;7.70;;;;;;;;;;80066;256;3028859;-34
2023/03/22 03:50:59;;;;;;;9.80;7.40;;;;;;;;;;80101;256;3027311;-34
2023/03/22 03:53:38;;;;;;;9.00;7.50;;;;;;;;;;80089;256;3030441;-34
2023/03/22 03:56:19;;;;;;;8.90;7.80;;;;;;;;;;80083;256;3037543;-34
2023/03/22 03:58:57;;;;;;;8.50;7.50;;;;;;;;;;80068;256;3028910;-34
2023/03/22 04:01:35;;;;;;;9.00;7.50;;;;;;;;;;80044;256;3027807;-34
2023/03/22 04:04:12;;;;;;;8.00;6.90;;;;;;;;;;80062;256;3031049;-34
2023/03/22 04:06:53;;;;;;;8.40;7.40;;;;;;;;;;80062;256;3037965;-34
2023/03/22 04:09:33;;;;;;;8.00;6.80;;;;;;;;;;80093;255;3028155;-34
2023/03/22 04:12:09;;;;;;;8.60;7.30;;;;;;;;;;80105;255;3027996;-32
2023/03/22 04:14:46;;;;;;;8.50;7.00;;;;;;;;;;80069;255;3030921;-33
2023/03/22 04:17:25;;;;;;;8.60;7.20;;;;;;;;;;80085;255;3032045;-33
2023/03/22 04:20:05;;;;;;;8.10;6.80;;;;;;;;;;80057;255;3028524;-33
2023/03/22 04:22:42;;;;;;;7.90;6.90;;;;;;;;;;80069;244;3027620;-33
2023/03/22 04:25:21;;;;;;;8.40;7.30;;;;;;;;;;80055;256;3030607;-33
2023/03/22 04:27:59;;;;;;;8.50;7.20;;;;;;;;;;80072;255;3031500;-33
2023/03/22 04:30:38;;;;;;;8.70;7.10;;;;;;;;;;80101;256;3028924;-33
2023/03/22 04:33:16;;;;;;;8.80;7.10;;;;;;;;;;80108;255;3027253;-34
2023/03/22 04:35:58;;;;;;;8.70;7.10;;;;;;;;;;80078;255;3031000;-34
2023/03/22 04:38:38;;;;;;;8.90;6.80;;;;;;;;;;80092;255;3031657;-34
2023/03/22 04:41:17;;;;;;;8.20;6.90;;;;;;;;;;80067;255;3028394;-34
2023/03/22 04:43:56;;;;;;;8.80;7.30;;;;;;;;;;80074;256;3027840;-34
2023/03/22 04:46:36;;;;;;;8.50;6.60;;;;;;;;;;80041;256;3030580;-34
2023/03/22 04:49:13;;;;;;;7.90;6.60;;;;;;;;;;80077;255;3031427;-34
2023/03/22 04:51:50;;;;;;;8.80;7.30;;;;;;;;;;80096;256;3028623;-34
2023/03/22 04:54:30;;;;;;;8.00;6.50;;;;;;;;;;80087;256;3027172;-34
2023/03/22 04:57:12;;;;;;;8.50;6.70;;;;;;;;;;80043;255;3030941;-34
2023/03/22 04:59:51;;;;;;;8.60;6.80;;;;;;;;;;80071;255;3031337;-34
2023/03/22 05:02:30;;;;;;;8.30;6.80;;;;;;;;;;80063;255;3028225;-34
2023/03/22 05:05:10;;;;;;;8.10;6.60;;;;;;;;;;80071;256;3027546;-34
2023/03/22 05:07:49;;;;;;;7.70;6.50;;;;;;;;;;80053;256;3031267;-34
2023/03/22 05:10:27;;;;;;;8.60;6.70;;;;;;;;;;80095;255;3032008;-34
2023/03/22 05:13:06;;;;;;;9.10;6.60;;;;;;;;;;80101;252;3028694;-34
2023/03/22 05:15:48;;;;;;;8.70;7.10;;;;;;;;;;80106;256;3027860;-34
2023/03/22 05:18:26;;;;;;;7.60;6.30;;;;;;;;;;80066;255;3037266;-34
2023/03/22 05:21:07;;;;;;;7.90;6.30;;;;;;;;;;80051;256;3031654;-34
2023/03/22 05:23:45;;;;;;;7.50;6.40;;;;;;;;;;80080;256;3028048;-34
2023/03/22 05:26:25;;;;;;;7.90;6.50;;;;;;;;;;80053;255;3027629;-34
2023/03/22 05:29:04;;;;;;;8.10;6.50;;;;;;;;;;80057;256;3030630;-33
2023/03/22 05:31:43;;;;;;;8.00;6.70;;;;;;;;;;80085;256;3031140;-33
2023/03/22 05:34:21;;;;;;;8.20;6.70;;;;;;;;;;80077;256;3028674;-33
2023/03/22 05:37:03;;;;;;;7.60;6.60;;;;;;;;;;79986;255;3027399;-33
2023/03/22 05:39:41;;;;;;;7.80;6.60;;;;;;;;;;80098;260;3030654;-33
2023/03/22 05:42:17;;;;;;;8.00;6.10;;;;;;;;;;80057;255;3031481;-33
2023/03/22 05:44:55;;;;;;;7.60;6.20;;;;;;;;;;80060;255;3028588;-33
2023/03/22 05:47:32;;;;;;;7.30;6.00;;;;;;;;;;80067;256;3027574;-33
2023/03/22 05:50:11;;;;;;;7.10;5.70;;;;;;;;;;80055;255;3030789;-33
2023/03/22 05:52:47;;;;;;;7.10;5.90;;;;;;;;;;80080;255;3032437;-33
2023/03/22 05:55:26;;;;;;;8.00;6.10;;;;;;;;;;80064;256;3028774;-33
2023/03/22 05:58:03;;;;;;;7.90;6.10;;;;;;;;;;80090;244;3027438;-33
2023/03/22 06:00:42;;;;;;;7.40;6.20;;;;;;;;;;80081;256;3030740;-33
2023/03/22 06:03:19;;;;;;;8.10;6.20;;;;;;;;;;80079;255;3031505;-33
2023/03/22 06:05:56;;;;;;;7.80;6.30;;;;;;;;;;80075;255;3028368;-33
2023/03/22 06:08:34;;;;;;;8.00;6.10;;;;;;;;;;80094;255;3027936;-33
2023/03/22 06:11:12;;;;;;;7.20;5.80;;;;;;;;;;80094;256;3031131;-33
2023/03/22 06:13:48;;;;;;;8.10;6.00;;;;;;;;;;80090;255;3031228;-33
2023/03/22 06:16:28;;;;;;;7.80;5.80;;;;;;;;;;80083;255;3028792;-33
2023/03/22 06:19:04;;;;;;;7.70;6.10;;;;;;;;;;80039;256;3027524;-33
2023/03/22 06:21:42;;;;;;;7.60;6.00;;;;;;;;;;80824;255;3011886;-33
2023/03/22 06:24:18;;;;;;;8.40;6.40;;;;;;;;;;80073;256;3031297;-34
2023/03/22 06:26:58;;;;;;;7.70;6.10;;;;;;;;;;80060;256;3032687;-34
2023/03/22 06:29:38;;;;;;;8.40;6.30;;;;;;;;;;80033;255;3029077;-34
2023/03/22 06:32:15;;;;;;;8.30;6.70;;;;;;;;;;80109;256;3027432;-34
2023/03/22 06:34:52;;;;;;;8.30;6.50;;;;;;;;;;80050;255;3031671;-34
2023/03/22 06:37:29;;;;;;;7.60;6.30;;;;;;;;;;79256;256;3031138;-34
2023/03/22 06:40:05;;;;;;;7.60;6.00;;;;;;;;;;80082;255;3034361;-34
2023/03/22 06:42:43;;;;;;;8.30;6.50;;;;;;;;;;80058;256;3027447;-34
2023/03/22 06:45:20;;;;;;;7.70;6.10;;;;;;;;;;80103;252;3031269;-34
2023/03/22 06:47:56;;;;;;;7.90;6.40;;;;;;;;;;80069;255;3032932;-34
2023/03/22 06:50:36;;;;;;;8.30;6.70;;;;;;;;;;80086;256;3028786;-34
2023/03/22 06:53:14;;;;;;;8.00;6.90;;;;;;;;;;80067;255;3027107;-34
2023/03/22 06:55:51;;;;;;;7.60;6.30;;;;;;;;;;80072;256;3031407;-34
2023/03/22 06:58:30;;;;;;;8.20;6.50;;;;;;;;;;79989;255;3030979;-33
2023/03/22 07:01:09;;;;;;;8.30;6.50;;;;;;;;;;80096;255;3028834;-32
2023/03/22 07:03:44;;;;;;;8.30;6.50;;;;;;;;;;80108;256;3028119;-32
2023/03/22 07:06:20;;;;;;;8.10;6.20;;;;;;;;;;80775;256;3011339;-32
2023/03/22 07:08:58;;;;;;;7.90;6.40;;;;;;;;;;80067;255;3030920;-35
2023/03/22 07:11:37;;;;;;;7.60;6.20;;;;;;;;;;80094;255;3032006;-35
2023/03/22 07:14:15;;;;;;;8.30;6.70;;;;;;;;;;80121;255;3028879;-34
2023/03/22 07:16:51;;;;;;;8.70;6.10;;;;;;;;;;80069;255;3027774;-35
2023/03/22 07:19:27;;;;;;;7.20;6.00;;;;;;;;;;80131;254;3032384;-33
2023/03/22 07:22:03;;;;;;;8.40;5.90;;;;;;;;;;80100;255;3031804;-33
2023/03/22 07:24:40;;;;;;;7.80;5.90;;;;;;;;;;80133;254;3029364;-32
2023/03/22 07:27:30;;;;;;;8.30;6.30;;;;;;;;;;80149;254;3027739;-32
2023/03/22 07:30:09;;;;;;;7.50;5.90;;;;;;;;;;80086;255;3031041;-33
2023/03/22 07:32:44;;;;;;;7.70;6.00;;;;;;;;;;80135;254;3031649;-34
2023/03/22 07:35:21;;;;;;;7.30;5.80;;;;;;;;;;80790;255;3011463;-33
2023/03/22 07:38:00;;;;;;;7.80;5.80;;;;;;;;;;80144;254;3028452;-33
2023/03/22 07:40:37;;;;;;;7.40;5.70;;;;;;;;;;80819;255;3013121;-33
2023/03/22 07:43:15;;;;;;;7.90;6.20;;;;;;;;;;80158;255;3027744;-33
2023/03/22 07:45:51;;;;;;;7.60;5.80;;;;;;;;;;80163;255;3030825;-33
2023/03/22 07:48:29;;;;;;;7.80;5.80;;;;;;;;;;80112;255;3032105;-33
2023/03/22 07:51:06;;;;;;;7.20;5.60;;;;;;;;;;80094;254;3028382;-32
2023/03/22 07:53:40;;;;;;;8.20;5.90;;;;;;;;;;80153;254;3027610;-32
2023/03/22 07:56:17;;;;;;;9.40;5.50;;;;;;;;;;80769;255;3013175;-34
2023/03/22 07:58:51;;;;;;;7.50;5.60;;;;;;;;;;80115;255;3030972;-34
2023/03/22 08:01:29;;;;;;;7.80;6.00;;;;;;;;;;80110;254;3032267;-34
2023/03/22 08:04:05;;;;;;;7.00;5.60;;;;;;;;;;80047;255;3028134;-33
2023/03/22 08:06:43;;;;;;;7.30;5.50;;;;;;;;;;80784;255;3011177;-33
2023/03/22 08:09:19;;;;;;;7.10;5.50;;;;;;;;;;80150;254;3027422;-33
2023/03/22 08:11:58;;;;;;;8.40;5.90;;;;;;;;;;80008;255;3038709;-33
2023/03/22 08:14:36;;;;;;;7.30;5.90;;;;;;;;;;80041;255;3034888;-33
2023/03/22 08:17:11;;;;;;;7.60;5.50;;;;;;;;;;80078;255;3028774;-33
2023/03/22 08:19:46;;;;;;;7.50;5.70;;;;;;;;;;80845;254;3011982;-33
2023/03/22 08:22:24;;;;;;;7.50;5.50;;;;;;;;;;80774;255;3011395;-33
2023/03/22 08:25:02;;;;;;;7.20;5.30;;;;;;;;;;80071;255;3027636;-33
2023/03/22 08:27:38;;;;;;;7.50;5.60;;;;;;;;;;80133;255;3030523;-32
2023/03/22 08:30:16;;;;;;;7.50;5.40;;;;;;;;;;80096;255;3031786;-32
2023/03/22 08:32:52;;;;;;;7.50;5.40;;;;;;;;;;80132;255;3028398;-33
2023/03/22 08:35:31;;;;;;;7.80;5.40;;;;;;;;;;80120;255;3027838;-33
2023/03/22 08:38:07;;;;;;;6.60;5.00;;;;;;;;;;80128;255;3030735;-33
2023/03/22 08:40:48;;;;;;;7.60;5.20;;;;;;;;;;80102;255;3031866;-33
2023/03/22 08:43:27;;;;;;;7.40;5.40;;;;;;;;;;80054;250;3028501;-33
2023/03/22 08:46:09;;;;;;;7.60;5.50;;;;;;;;;;80069;255;3027056;-33
2023/03/22 08:48:51;;;;;;;7.00;5.30;;;;;;;;;;80116;255;3031063;-33
2023/03/22 08:51:30;;;;;;;7.10;5.30;;;;;;;;;;80084;254;3031725;-33
2023/03/22 08:54:08;;;;;;;7.60;5.30;;;;;;;;;;80017;255;3027861;-34
2023/03/22 08:56:49;;;;;;;6.60;5.20;;;;;;;;;;80107;255;3027358;-33
2023/03/22 08:59:27;;;;;;;7.60;5.10;;;;;;;;;;80059;254;3031120;-33
2023/03/22 09:02:06;;;;;;;7.60;5.50;;;;;;;;;;80093;255;3031151;-33
2023/03/22 09:04:43;;;;;;;6.80;4.80;;;;;;;;;;80075;255;3028030;-33
2023/03/22 09:07:23;;;;;;;6.70;5.20;;;;;;;;;;80090;255;3027201;-33
2023/03/22 09:10:03;;;;;;;6.60;4.80;;;;;;;;;;80073;255;3030602;-33
2023/03/22 09:12:41;;;;;;;6.90;5.20;;;;;;;;;;80094;255;3031168;-33
2023/03/22 09:15:19;;;;;;;7.50;5.10;;;;;;;;;;80090;254;3028654;-33
2023/03/22 09:17:57;;;;;;;6.70;4.80;;;;;;;;;;80008;257;3027589;-34
2023/03/22 09:20:34;;;;;;;6.80;4.90;;;;;;;;;;80132;255;3031333;-32
2023/03/22 09:23:11;;;;;;;6.30;4.90;;;;;;;;;;80036;255;3031097;-33
2023/03/22 09:25:47;;;;;;;6.30;5.00;;;;;;;;;;80097;255;3028544;-34
2023/03/22 09:28:24;;;;;;;7.00;5.00;;;;;;;;;;80132;255;3027453;-32
2023/03/22 09:31:04;;;;;;;6.50;4.80;;;;;;;;;;80140;255;3031427;-33
2023/03/22 09:33:43;;;;;;;6.50;5.00;;;;;;;;;;80219;254;3037265;-33
2023/03/22 09:36:20;;;;;;;6.10;4.60;;;;;;;;;;80065;255;3028259;-33
2023/03/22 09:39:01;;;;;;;6.50;4.80;;;;;;;;;;80111;255;3027676;-33
2023/03/22 09:41:44;;;;;;;6.90;5.00;;;;;;;;;;80064;255;3030956;-33
2023/03/22 09:44:30;;;;;;;6.60;4.70;;;;;;;;;;80092;255;3037466;-32
2023/03/22 09:47:13;;;;;;;6.00;4.40;;;;;;;;;;80120;255;3027938;-33
2023/03/22 09:49:55;;;;;;;6.00;4.40;;;;;;;;;;80192;255;3027845;-33
2023/03/22 09:52:32;;;;;;;6.00;4.60;;;;;;;;;;80102;255;3031309;-32
2023/03/22 09:55:21;;;;;;;6.70;4.80;;;;;;;;;;80134;254;3031601;-33
2023/03/22 09:58:07;;;;;;;7.10;4.90;;;;;;;;;;80157;254;3027897;-32
2023/03/22 10:00:48;;;;;;;6.50;4.70;;;;;;;;;;80146;254;3027587;-32
2023/03/22 10:03:44;;;;;;;6.40;4.50;;;;;;;;;;80049;255;3030683;-32
2023/03/22 10:06:23;;;;;;;6.00;4.50;;;;;;;;;;80074;255;3031291;-33
2023/03/22 10:09:12;;;;;;;5.80;4.60;;;;;;;;;;80134;254;3028078;-33
2023/03/22 10:11:56;;;;;;;6.10;4.80;;;;;;;;;;80102;255;3028518;-33
2023/03/22 10:14:37;;;;;;;5.90;4.60;;;;;;;;;;80164;255;3031094;-33
2023/03/22 10:17:17;;;;;;;6.80;4.70;;;;;;;;;;80161;254;3031351;-33
2023/03/22 10:19:59;;;;;;;6.00;4.70;;;;;;;;;;80123;255;3028431;-33
2023/03/22 10:22:39;;;;;;;5.90;4.70;;;;;;;;;;80154;255;3027528;-33
2023/03/22 10:25:24;;;;;;;6.20;4.70;;;;;;;;;;80208;255;3037548;-33
2023/03/22 10:28:02;;;;;;;6.20;4.30;;;;;;;;;;80107;255;3031446;-33
2023/03/22 10:30:41;;;;;;;6.60;4.40;;;;;;;;;;80152;254;3028653;-33
2023/03/22 10:33:28;;;;;;;6.40;4.80;;;;;;;;;;80139;255;3027440;-33
2023/03/22 10:36:12;;;;;;;6.60;4.40;;;;;;;;;;80101;255;3031169;-33
2023/03/22 10:38:53;;;;;;;5.90;4.40;;;;;;;;;;80140;254;3031192;-32
2023/03/22 10:41:32;;;;;;;6.40;4.60;;;;;;;;;;80103;254;3028475;-32
2023/03/22 10:44:18;;;;;;;5.70;4.40;;;;;;;;;;80076;254;3027687;-32
2023/03/22 10:46:56;;;;;;;6.30;4.50;;;;;;;;;;80118;254;3030467;-32
2023/03/22 10:49:38;;;;;;;6.00;4.60;;;;;;;;;;80114;255;3031153;-33
2023/03/22 10:52:33;;;;;;;6.20;4.40;;;;;;;;;;80083;254;3028417;-33
2023/03/22 10:55:13;;;;;;;5.90;4.30;;;;;;;;;;80121;255;3027317;-32
2023/03/22 10:58:00;;;;;;;5.90;4.40;;;;;;;;;;80016;254;3030766;-32
2023/03/22 11:00:37;;;;;;;6.10;4.30;;;;;;;;;;80146;255;3032054;-32
2023/03/22 11:03:31;;;;;;;6.00;4.30;;;;;;;;;;80200;255;3028834;-32
2023/03/22 11:06:11;;;;;;;6.20;4.40;;;;;;;;;;80211;255;3034075;-32
2023/03/22 11:08:49;;;;;;;6.40;4.40;;;;;;;;;;80149;255;3030709;-32
2023/03/22 11:11:28;;;;;;;6.10;4.50;;;;;;;;;;80240;254;3031898;-32
2023/03/22 11:14:12;;;;;;;5.90;4.50;;;;;;;;;;80102;255;3028202;-32
2023/03/22 11:17:08;;;;;;;6.50;4.30;;;;;;;;;;80126;255;3033908;-32
2023/03/22 11:19:54;;;;;;;6.70;4.50;;;;;;;;;;80168;254;3030420;-32
2023/03/22 11:22:37;;;;;;;6.40;4.70;;;;;;;;;;80095;255;3031531;-32
2023/03/22 11:25:20;;;;;;;6.40;4.50;;;;;;;;;;80140;255;3027916;-32
2023/03/22 11:27:58;;;;;;;6.60;4.40;;;;;;;;;;80196;254;3027178;-32
2023/03/22 11:30:37;;;;;;;6.40;4.60;;;;;;;;;;80115;255;3030013;-32
2023/03/22 11:33:24;;;;;;;5.90;4.50;;;;;;;;;;80184;255;3032550;-32
2023/03/22 11:36:04;;;;;;;5.20;4.10;;;;;;;;;;80146;254;3027967;-32
2023/03/22 11:38:44;;;;;;;6.20;4.50;;;;;;;;;;80146;244;3027621;-32
2023/03/22 11:41:28;;;;;;;6.00;4.30;;;;;;;;;;80125;255;3030608;-32
2023/03/22 11:44:06;;;;;;;7.30;4.70;;;;;;;;;;80170;255;3031584;-32
2023/03/22 11:46:51;;;;;;;5.90;4.30;;;;;;;;;;80146;255;3028352;-32
2023/03/22 11:49:42;;;;;;;5.80;4.20;;;;;;;;;;80107;255;3027489;-32
2023/03/22 11:52:23;;;;;;;6.10;4.60;;;;;;;;;;80122;254;3031046;-32
2023/03/22 11:55:02;;;;;;;6.30;4.40;;;;;;;;;;80157;255;3031793;-32
2023/03/22 11:57:38;;;;;;;6.20;4.10;;;;;;;;;;80124;243;3035153;-32
2023/03/22 12:00:24;;;;;;;7.00;4.40;;;;;;;;;;80080;256;3027174;-32
2023/03/22 12:03:04;;;;;;;6.40;4.60;;;;;;;;;;80153;244;3031064;-32
2023/03/22 12:05:45;;;;;;;6.60;4.60;;;;;;;;;;80113;255;3032024;-32
2023/03/22 12:08:28;;;;;;;6.60;4.50;;;;;;;;;;80102;255;3028152;-32
2023/03/22 12:11:08;;;;;;;7.00;4.90;;;;;;;;;;80170;254;3027802;-32
2023/03/22 12:13:52;;;;;;;6.00;4.00;;;;;;;;;;80158;255;3031477;-32
2023/03/22 12:16:34;;;;;;;5.70;4.20;;;;;;;;;;80117;255;3032429;-32
2023/03/22 12:19:27;;;;;;;6.10;4.40;;;;;;;;;;80062;255;3027950;-32
2023/03/22 12:22:12;;;;;;;5.90;4.20;;;;;;;;;;80116;255;3027332;-32
2023/03/22 12:24:47;;;;;;;5.80;4.50;;;;;;;;;;80165;254;3030723;-32
2023/03/22 12:27:27;;;;;;;5.80;4.10;;;;;;;;;;80126;255;3031565;-32
2023/03/22 12:30:07;;;;;;;6.40;4.60;;;;;;;;;;80123;255;3028260;-32
2023/03/22 12:32:51;;;;;;;5.80;4.50;;;;;;;;;;80182;255;3027976;-32
2023/03/22 12:35:31;;;;;;;5.90;4.30;;;;;;;;;;80123;255;3030704;-32
2023/03/22 12:38:22;;;;;;;5.80;4.50;;;;;;;;;;80116;255;3031277;-32
2023/03/22 12:41:03;;;;;;;5.80;4.10;;;;;;;;;;80222;254;3028183;-32
2023/03/22 12:43:52;;;;;;;5.60;4.10;;;;;;;;;;80152;255;3027106;-32
2023/03/22 12:46:32;;;;;;;5.80;4.10;;;;;;;;;;80130;255;3030374;-32
2023/03/22 12:49:18;;;;;;;6.40;4.60;;;;;;;;;;80129;254;3032359;-32
2023/03/22 12:52:03;;;;;;;5.80;4.20;;;;;;;;;;80208;255;3029465;-32
2023/03/22 12:54:41;;;;;;;5.90;4.40;;;;;;;;;;80204;255;3027945;-32
2023/03/22 12:57:20;;;;;;;5.60;4.30;;;;;;;;;;80152;255;3031366;-32
2023/03/22 13:00:00;;;;;;;5.90;4.20;;;;;;;;;;80118;310;3031442;-32
2023/03/22 13:02:37;;;;;;;6.10;4.40;;;;;;;;;;80153;254;3028245;-32
2023/03/22 13:05:15;;;;;;;6.20;4.40;;;;;;;;;;80132;255;3027287;-32
2023/03/22 13:08:02;;;;;;;6.10;4.20;;;;;;;;;;80112;255;3031105;-32
2023/03/22 13:11:00;;;;;;;5.70;4.20;;;;;;;;;;80154;254;3031516;-32
2023/03/22 13:13:47;;;;;;;6.10;4.30;;;;;;;;;;80172;254;3027718;-32
2023/03/22 13:16:48;;;;;;;5.70;4.20;;;;;;;;;;80128;255;3027303;-32
2023/03/22 13:19:37;;;;;;;6.30;4.30;;;;;;;;;;80096;255;3036843;-32
2023/03/22 13:22:30;;;;;;;5.80;4.00;;;;;;;;;;80155;255;3032010;-32
2023/03/22 13:25:29;;;;;;;6.40;4.10;;;;;;;;;;80152;255;3028447;-32
2023/03/22 13:28:27;;;;;;;6.40;4.30;;;;;;;;;;80112;255;3027709;-32
2023/03/22 13:31:07;;;;;;;5.70;3.80;;;;;;;;;;80135;255;3030944;-32
2023/03/22 13:33:55;;;;;;;5.90;4.00;;;;;;;;;;80187;254;3034174;-32
2023/03/22 13:36:36;;;;;;;5.40;4.00;;;;;;;;;;80132;256;3028646;-32
2023/03/22 13:39:18;;;;;;;6.10;4.00;;;;;;;;;;80049;255;3027678;-32
2023/03/22 13:42:07;;;;;;;5.60;4.20;;;;;;;;;;80177;254;3031023;-32
2023/03/22 13:44:46;;;;;;;5.40;3.90;;;;;;;;;;80122;254;3031929;-33
2023/03/22 13:47:38;;;;;;;5.80;4.00;;;;;;;;;;80122;255;3028308;-33
2023/03/22 13:50:21;;;;;;;6.30;4.30;;;;;;;;;;80136;256;3032954;-32
2023/03/22 13:53:02;;;;;;;5.90;4.00;;;;;;;;;;80130;255;3030493;-32
2023/03/22 13:55:59;;;;;;;5.30;4.00;;;;;;;;;;80167;255;3031675;-32
2023/03/22 13:58:51;;;;;;;5.60;4.20;;;;;;;;;;80084;256;3028225;-32
2023/03/22 14:01:35;;;;;;;6.00;4.00;;;;;;;;;;80116;254;3027710;-32
2023/03/22 14:04:21;;;;;;;5.60;4.00;;;;;;;;;;80111;255;3030533;-32
2023/03/22 14:07:09;;;;;;;5.70;3.90;;;;;;;;;;80042;257;3031500;-32
2023/03/22 14:09:54;;;;;;;5.70;4.00;;;;;;;;;;80132;255;3028152;-32
2023/03/22 14:12:46;;;;;;;5.70;4.00;;;;;;;;;;80147;254;3030066;-32
2023/03/22 14:15:25;;;;;;;6.00;4.30;;;;;;;;;;80126;254;3031335;-32
2023/03/22 14:18:07;;;;;;;5.70;3.80;;;;;;;;;;80079;255;3031895;-32
2023/03/22 14:20:51;;;;;;;5.60;4.20;;;;;;;;;;80117;255;3028642;-32
2023/03/22 14:23:31;;;;;;;5.70;4.10;;;;;;;;;;80130;255;3027912;-32
2023/03/22 14:26:18;;;;;;;6.00;4.00;;;;;;;;;;80085;255;3030574;-32
2023/03/22 14:28:53;;;;;;;5.50;4.20;;;;;;;;;;80107;255;3031937;-32
2023/03/22 14:31:31;;;;;;;5.90;3.80;;;;;;;;;;80815;255;3011292;-32
2023/03/22 14:34:08;;;;;;;5.30;4.00;;;;;;;;;;80159;254;3028542;-32
2023/03/22 14:36:48;;;;;;;5.60;4.00;;;;;;;;;;80037;255;3028040;-32
2023/03/22 14:39:32;;;;;;;5.70;4.00;;;;;;;;;;79995;255;3031248;-32
2023/03/22 14:42:14;;;;;;;5.50;3.90;;;;;;;;;;80113;255;3031444;-32
2023/03/22 14:44:51;;;;;;;5.70;4.20;;;;;;;;;;80097;255;3028675;-32
2023/03/22 14:47:32;;;;;;;5.90;3.90;;;;;;;;;;80131;255;3027868;-32
2023/03/22 14:50:13;;;;;;;6.60;4.30;;;;;;;;;;80130;254;3031210;-32
2023/03/22 14:52:50;;;;;;;6.20;4.30;;;;;;;;;;80122;254;3031629;-32
2023/03/22 14:55:29;;;;;;;6.10;4.30;;;;;;;;;;80118;255;3028852;-32
2023/03/22 14:58:04;;;;;;;5.80;4.30;;;;;;;;;;80084;255;3027903;-32
2023/03/22 15:00:41;;;;;;;6.40;4.20;;;;;;;;;;80792;255;3011450;-32
2023/03/22 15:03:25;;;;;;;6.30;4.10;;;;;;;;;;80140;254;3031053;-32
2023/03/22 15:06:00;;;;;;;6.30;4.00;;;;;;;;;;80107;254;3031302;-32
2023/03/22 15:08:35;;;;;;;6.00;4.10;;;;;;;;;;80857;254;3011475;-32
2023/03/22 15:11:10;;;;;;;5.80;3.90;;;;;;;;;;81399;255;3012640;-32
2023/03/22 15:13:47;;;;;;;6.00;4.00;;;;;;;;;;80178;254;3027747;-32
2023/03/22 15:16:23;;;;;;;5.50;4.10;;;;;;;;;;80142;254;3031042;-33
2023/03/22 15:18:56;;;;;;;5.70;4.10;;;;;;;;;;80095;255;3031842;-32
2023/03/22 15:21:30;;;;;;;5.60;3.80;;;;;;;;;;81373;254;3011412;-32
2023/03/22 15:24:27;;;;;;;6.00;4.10;;;;;;;;;;80158;255;3027180;-31
2023/03/22 15:27:03;;;;;;;5.50;3.90;;;;;;;;;;80189;254;3030781;-31
2023/03/22 15:29:40;;;;;;;5.90;4.20;;;;;;;;;;80930;255;3011612;-31
2023/03/22 15:32:20;;;;;;;5.50;4.00;;;;;;;;;;80068;255;3031527;-32
2023/03/22 15:34:56;;;;;;;5.50;3.80;;;;;;;;;;80129;255;3029191;-31
2023/03/22 15:37:33;;;;;;;5.40;4.10;;;;;;;;;;80161;254;3027212;-31
2023/03/22 15:40:22;;;;;;;8.60;4.30;;;;;;;;;;80083;255;3031014;-33
2023/03/22 15:43:17;;;;;;;5.70;4.10;;;;;;;;;;80133;255;3038436;-32
2023/03/22 15:46:18;;;;;;;5.40;3.70;;;;;;;;;;80127;255;3028847;-33
2023/03/22 15:48:58;;;;;;;5.70;4.10;;;;;;;;;;80158;254;3027389;-32
2023/03/22 15:51:39;;;;;;;5.70;3.80;;;;;;;;;;80126;254;3030823;-32
2023/03/22 15:54:19;;;;;;;5.80;3.80;;;;;;;;;;80087;256;3031468;-32